createdAt,value
2018-02-16T00:01:24.095Z,32.03
2018-02-16T00:03:53.509Z,33.90
2018-02-16T00:06:22.880Z,35.80
2018-02-16T00:08:50.592Z,32.43
2018-02-16T00:11:18.694Z,33.87
2018-02-16T00:13:49.056Z,35.17
2018-02-16T00:16:16.742Z,36.23
2018-02-16T00:18:44.299Z,35.90
2018-02-16T00:21:11.904Z,36.13
2018-02-16T00:23:39.819Z,37.20
2018-02-16T00:26:09.847Z,36.23
2018-02-16T00:28:38.028Z,34.83
2018-02-16T00:31:05.577Z,34.60
2018-02-16T00:33:34.010Z,34.83
2018-02-16T00:36:01.626Z,31.67
2018-02-16T00:38:30.102Z,33.57
2018-02-16T00:40:57.717Z,34.17
2018-02-16T00:43:25.351Z,33.70
2018-02-16T00:45:52.924Z,32.87
2018-02-16T00:48:21.954Z,32.30
2018-02-16T00:50:49.605Z,31.27
2018-02-16T00:53:17.382Z,34.63
2018-02-16T00:55:45.003Z,32.50
2018-02-16T00:58:13.842Z,33.43
2018-02-16T01:00:41.410Z,34.30
2018-02-16T01:03:09.356Z,34.07
2018-02-16T01:05:36.915Z,33.53
2018-02-16T01:08:04.496Z,32.20
2018-02-16T01:10:32.004Z,31.27
2018-02-16T01:12:59.660Z,30.23
2018-02-16T01:15:28.020Z,30.07
2018-02-16T01:17:55.673Z,29.57
2018-02-16T01:20:23.599Z,26.77
2018-02-16T01:22:51.167Z,28.20
2018-02-16T01:25:18.836Z,29.60
2018-02-16T01:27:46.432Z,27.70
2018-02-16T01:30:14.410Z,28.97
2018-02-16T01:32:42.036Z,29.57
2018-02-16T01:35:09.566Z,29.37
2018-02-16T01:37:37.095Z,29.40
2018-02-16T01:40:04.688Z,28.80
2018-02-16T01:42:32.223Z,27.13
2018-02-16T01:44:59.775Z,25.67
2018-02-16T01:47:27.369Z,26.47
2018-02-16T01:50:05.642Z,25.07
2018-02-16T01:52:33.376Z,25.43
2018-02-16T01:55:01.624Z,25.07
2018-02-16T01:57:29.152Z,25.87
2018-02-16T02:14:03.730Z,24.50
2018-02-16T02:16:31.303Z,25.63
2018-02-16T02:18:58.851Z,23.50
2018-02-16T02:21:26.455Z,25.10
2018-02-16T02:23:53.986Z,25.53
2018-02-16T02:26:21.476Z,24.87
2018-02-16T02:28:49.122Z,26.80
2018-02-16T02:31:16.635Z,25.93
2018-02-16T02:33:44.218Z,24.53
2018-02-16T02:36:11.813Z,27.10
2018-02-16T02:38:39.402Z,24.87
2018-02-16T02:41:07.474Z,25.10
2018-02-16T02:43:35.030Z,28.13
2018-02-16T02:46:03.007Z,25.73
2018-02-16T02:48:30.630Z,25.73
2018-02-16T02:50:58.247Z,28.13
2018-02-16T02:53:25.882Z,27.33
2018-02-16T02:55:54.409Z,28.77
2018-02-16T02:58:21.983Z,27.93
2018-02-16T03:00:49.577Z,27.10
2018-02-16T03:03:17.203Z,28.43
2018-02-16T03:05:44.868Z,27.13
2018-02-16T03:08:12.466Z,27.63
2018-02-16T03:10:40.061Z,28.00
2018-02-16T03:13:07.682Z,27.97
2018-02-16T03:15:35.239Z,27.73
2018-02-16T03:18:02.873Z,26.13
2018-02-16T03:20:30.390Z,26.20
2018-02-16T03:22:57.912Z,26.07
2018-02-16T03:34:07.369Z,28.70
2018-02-16T03:36:38.235Z,30.17
2018-02-16T03:39:08.247Z,30.77
2018-02-16T03:41:37.955Z,32.93
2018-02-16T03:44:08.884Z,30.27
2018-02-16T03:46:37.990Z,31.23
2018-02-16T03:49:09.694Z,31.27
2018-02-16T03:51:40.939Z,29.80
2018-02-16T03:54:12.277Z,28.07
2018-02-16T03:56:43.922Z,28.43
2018-02-16T03:59:12.051Z,26.90
2018-02-16T04:01:46.462Z,27.90
2018-02-16T04:04:22.790Z,29.00
2018-02-16T04:06:50.479Z,28.17
2018-02-16T04:09:27.268Z,27.13
2018-02-16T04:12:08.946Z,26.27
2018-02-16T04:14:44.120Z,24.63
2018-02-16T04:17:20.757Z,25.40
2018-02-16T04:19:51.209Z,22.90
2018-02-16T04:22:21.592Z,21.70
2018-02-16T04:24:56.979Z,23.60
2018-02-16T04:27:33.351Z,23.77
2018-02-16T04:30:02.154Z,22.23
2018-02-16T04:35:09.145Z,22.50
2018-02-16T04:37:36.673Z,23.47
2018-02-16T04:40:12.195Z,24.67
2018-02-16T04:42:40.517Z,22.53
2018-02-16T04:45:18.337Z,22.57
2018-02-16T04:47:46.821Z,21.77
2018-02-16T04:50:15.709Z,23.13
2018-02-16T04:52:47.519Z,21.77
2018-02-16T04:55:15.187Z,22.93
2018-02-16T04:57:44.403Z,21.50
2018-02-16T05:00:14.233Z,19.70
2018-02-16T05:02:43.281Z,21.20
2018-02-16T05:05:13.857Z,21.03
2018-02-16T05:07:42.659Z,21.70
2018-02-16T05:10:20.640Z,21.63
2018-02-16T05:12:48.166Z,21.10
2018-02-16T05:15:16.116Z,22.33
2018-02-16T05:17:44.784Z,24.27
2018-02-16T05:20:12.453Z,26.90
2018-02-16T05:22:39.967Z,24.67
2018-02-16T05:25:07.544Z,26.60
2018-02-16T06:20:01.943Z,9.90
2018-02-16T06:22:29.535Z,8.73
2018-02-16T06:24:57.165Z,9.93
2018-02-16T06:27:24.745Z,8.83
2018-02-16T06:29:52.353Z,8.47
2018-02-16T06:32:19.878Z,8.97
2018-02-16T06:34:47.455Z,8.70
2018-02-16T06:37:15.438Z,9.73
2018-02-16T06:39:43.000Z,10.27
2018-02-16T06:42:10.546Z,10.17
2018-02-16T06:44:38.167Z,11.10
2018-02-16T06:47:05.766Z,10.50
2018-02-16T06:49:33.764Z,12.20
2018-02-16T06:52:01.394Z,12.40
2018-02-16T06:54:29.018Z,11.73
2018-02-16T06:56:56.616Z,11.97
2018-02-16T06:59:24.214Z,11.87
2018-02-16T07:01:51.727Z,10.50
2018-02-16T07:04:19.709Z,9.93
2018-02-16T07:06:47.235Z,9.47
2018-02-16T07:09:15.217Z,8.93
2018-02-16T07:11:43.270Z,8.87
2018-02-16T07:14:10.875Z,10.07
2018-02-16T07:16:38.466Z,9.27
2018-02-16T07:19:06.039Z,8.60
2018-02-16T07:21:33.642Z,9.17
2018-02-16T07:24:01.220Z,7.83
2018-02-16T07:26:28.842Z,8.17
2018-02-16T07:28:56.427Z,7.60
2018-02-16T07:31:23.948Z,6.70
2018-02-16T07:33:51.956Z,6.90
2018-02-16T07:36:19.506Z,6.23
2018-02-16T07:38:47.054Z,6.73
2018-02-16T07:41:14.578Z,6.97
2018-02-16T07:43:42.125Z,5.43
2018-02-16T07:46:09.729Z,5.33
2018-02-16T07:48:37.296Z,4.90
2018-02-16T07:51:04.849Z,4.60
2018-02-16T07:53:32.470Z,3.87
2018-02-16T07:56:00.010Z,3.83
2018-02-16T07:58:27.602Z,3.47
2018-02-16T08:00:55.579Z,3.47
2018-02-16T08:03:23.472Z,3.00
2018-02-16T08:05:51.082Z,3.40
2018-02-16T08:08:18.606Z,2.93
2018-02-16T08:10:46.169Z,3.07
2018-02-16T08:13:13.777Z,2.73
2018-02-16T08:15:41.731Z,2.63
2018-02-16T08:18:09.303Z,3.53
2018-02-16T08:20:37.373Z,2.80
2018-02-16T08:23:05.282Z,2.80
2018-02-16T08:25:32.863Z,3.27
2018-02-16T08:28:00.486Z,3.17
2018-02-16T08:30:28.106Z,2.63
2018-02-16T08:32:56.084Z,3.00
2018-02-16T08:35:24.088Z,2.80
2018-02-16T08:37:51.618Z,2.57
2018-02-16T08:40:19.530Z,2.70
2018-02-16T08:42:47.084Z,2.13
2018-02-16T08:45:14.635Z,2.43
2018-02-16T09:24:58.967Z,2.63
2018-02-16T09:27:26.539Z,3.17
2018-02-16T09:29:54.059Z,3.20
2018-02-16T09:32:21.605Z,2.80
2018-02-16T09:34:49.191Z,2.73
2018-02-16T09:37:17.800Z,2.40
2018-02-16T09:39:46.158Z,2.17
2018-02-16T09:42:13.738Z,3.03
2018-02-16T09:44:41.332Z,2.67
2018-02-16T09:47:08.915Z,2.37
2018-02-16T09:49:36.505Z,2.33
2018-02-16T09:52:04.484Z,2.33
2018-02-16T09:54:32.057Z,2.20
2018-02-16T09:56:59.583Z,2.20
2018-02-16T09:59:27.565Z,2.60
2018-02-16T10:01:55.131Z,2.30
2018-02-16T10:04:22.691Z,2.30
2018-02-16T10:06:50.314Z,2.43
2018-02-16T10:09:17.896Z,2.40
2018-02-16T10:11:45.871Z,2.27
2018-02-16T10:14:13.479Z,2.43
2018-02-16T10:16:41.082Z,2.13
2018-02-16T10:19:08.573Z,2.73
2018-02-16T10:21:36.104Z,2.80
2018-02-16T10:24:04.056Z,2.40
2018-02-16T10:26:32.061Z,2.40
2018-02-16T10:28:59.616Z,2.30
2018-02-16T10:31:27.174Z,2.03
2018-02-16T10:33:54.766Z,2.70
2018-02-16T10:36:22.355Z,2.73
2018-02-16T10:38:50.328Z,2.90
2018-02-16T10:41:18.275Z,2.93
2018-02-16T10:43:45.807Z,2.93
2018-02-16T10:46:13.306Z,2.70
2018-02-16T10:48:40.885Z,2.27
2018-02-16T10:51:08.418Z,2.30
2018-02-16T10:53:36.402Z,4.10
2018-02-16T10:56:03.995Z,3.03
2018-02-16T10:58:31.505Z,2.50
2018-02-16T11:01:05.716Z,2.53
2018-02-16T11:03:39.206Z,2.90
2018-02-16T11:06:12.726Z,2.70
2018-02-16T11:08:46.243Z,3.37
2018-02-16T11:11:13.858Z,2.53
2018-02-16T11:13:41.415Z,2.20
2018-02-16T11:16:08.961Z,2.83
2018-02-16T11:18:36.460Z,2.27
2018-02-16T11:21:03.966Z,2.40
2018-02-16T11:23:31.590Z,2.30
2018-02-16T11:25:59.177Z,2.60
2018-02-16T11:28:26.788Z,2.00
2018-02-16T11:30:54.794Z,2.03
2018-02-16T11:33:22.386Z,2.13
2018-02-16T11:35:49.933Z,1.67
2018-02-16T11:38:17.499Z,2.10
2018-02-16T11:40:45.011Z,1.80
2018-02-16T11:43:12.560Z,2.10
2018-02-16T11:45:40.147Z,2.07
2018-02-16T11:48:07.712Z,2.00
2018-02-16T11:50:35.209Z,2.10
2018-02-16T11:53:02.782Z,1.83
2018-02-16T11:55:30.731Z,2.23
2018-02-16T11:57:58.327Z,2.03
2018-02-16T12:00:25.872Z,2.10
2018-02-16T12:02:53.840Z,2.60
2018-02-16T12:05:21.827Z,2.00
2018-02-16T12:07:49.333Z,1.60
2018-02-16T12:10:16.942Z,1.83
2018-02-16T12:12:44.443Z,2.10
2018-02-16T12:15:12.025Z,1.70
2018-02-16T12:17:39.542Z,2.00
2018-02-16T12:20:07.148Z,1.73
2018-02-16T12:22:35.138Z,1.60
2018-02-16T12:25:02.726Z,1.93
2018-02-16T12:27:30.335Z,1.97
2018-02-16T12:29:58.293Z,1.77
2018-02-16T12:32:25.882Z,2.20
2018-02-16T12:34:53.474Z,2.37
2018-02-16T12:37:20.999Z,1.80
2018-02-16T12:39:48.527Z,2.10
2018-02-16T12:42:16.027Z,1.63
2018-02-16T12:44:43.536Z,2.23
2018-02-16T12:47:11.091Z,2.10
2018-02-16T12:49:38.658Z,2.00
2018-02-16T12:52:06.228Z,1.83
2018-02-16T12:54:34.146Z,1.53
2018-02-16T12:57:01.651Z,2.00
2018-02-16T12:59:32.615Z,1.60
2018-02-16T13:02:00.206Z,2.20
2018-02-16T13:04:27.726Z,1.90
2018-02-16T13:06:55.298Z,1.83
2018-02-16T13:09:22.815Z,1.90
2018-02-16T13:11:50.391Z,1.70
2018-02-16T13:14:17.992Z,1.70
2018-02-16T13:16:45.546Z,3.63
2018-02-16T13:19:13.158Z,1.97
2018-02-16T13:21:41.131Z,1.90
2018-02-16T13:24:09.116Z,1.47
2018-02-16T13:26:36.715Z,2.10
2018-02-16T13:29:04.230Z,2.17
2018-02-16T13:31:31.770Z,1.93
2018-02-16T13:33:59.371Z,2.13
2018-02-16T13:36:26.932Z,2.30
2018-02-16T13:38:54.442Z,2.03
2018-02-16T13:41:22.422Z,2.00
2018-02-16T13:43:50.018Z,2.40
2018-02-16T13:46:17.540Z,2.37
2018-02-16T13:48:45.094Z,2.40
2018-02-16T13:51:12.607Z,2.00
2018-02-16T13:53:40.165Z,2.10
2018-02-16T13:56:07.775Z,2.10
2018-02-16T13:58:35.373Z,1.80
2018-02-16T14:01:02.903Z,2.17
2018-02-16T14:03:30.447Z,2.00
2018-02-16T14:05:58.391Z,1.80
2018-02-16T14:08:25.916Z,2.13
2018-02-16T14:10:54.760Z,2.40
2018-02-16T14:13:22.730Z,1.80
2018-02-16T14:15:50.351Z,1.97
2018-02-16T14:18:17.951Z,2.50
2018-02-16T14:20:45.533Z,2.60
2018-02-16T14:23:13.134Z,2.80
2018-02-16T14:25:40.676Z,2.93
2018-02-16T14:28:08.217Z,2.63
2018-02-16T14:30:35.734Z,2.90
2018-02-16T14:33:03.344Z,2.40
2018-02-16T14:35:30.947Z,2.33
2018-02-16T14:37:58.577Z,2.13
2018-02-16T14:40:26.093Z,1.87
2018-02-16T14:42:53.683Z,1.90
2018-02-16T14:45:21.223Z,2.00
2018-02-16T14:47:48.811Z,2.83
2018-02-16T14:50:16.395Z,2.00
2018-02-16T14:52:44.330Z,2.20
2018-02-16T14:55:11.959Z,2.77
2018-02-16T14:57:39.503Z,2.73
2018-02-16T15:00:07.099Z,3.27
2018-02-16T15:02:34.615Z,4.20
2018-02-16T15:05:02.160Z,3.60
2018-02-16T15:07:30.063Z,3.90
2018-02-16T15:09:57.617Z,3.47
2018-02-16T15:12:25.163Z,4.13
2018-02-16T15:14:52.766Z,4.43
2018-02-16T15:17:20.378Z,4.97
2018-02-16T15:19:47.915Z,4.10
2018-02-16T15:22:15.834Z,4.30
2018-02-16T15:24:43.361Z,5.23
2018-02-16T15:27:10.921Z,4.90
2018-02-16T15:29:38.436Z,7.77
2018-02-16T15:32:06.012Z,6.63
2018-02-16T15:34:33.991Z,6.70
2018-02-16T15:37:01.943Z,6.17
2018-02-16T15:39:29.856Z,6.00
2018-02-16T15:41:57.724Z,5.00
2018-02-16T15:44:25.218Z,5.33
2018-02-16T15:46:52.814Z,5.87
2018-02-16T15:49:20.321Z,5.63
2018-02-16T15:51:47.823Z,5.90
2018-02-16T15:54:15.420Z,5.10
2018-02-16T15:56:46.931Z,4.40
2018-02-16T15:59:14.461Z,3.87
2018-02-16T16:01:42.098Z,4.37
2018-02-16T16:04:10.254Z,3.83
2018-02-16T16:06:37.913Z,4.17
2018-02-16T16:09:05.557Z,3.60
2018-02-16T16:11:33.160Z,3.47
2018-02-16T16:14:00.765Z,3.60
2018-02-16T16:16:28.383Z,4.27
2018-02-16T16:18:55.964Z,4.07
2018-02-16T16:21:23.887Z,5.67
2018-02-16T16:23:51.454Z,5.13
2018-02-16T16:26:18.958Z,4.70
2018-02-16T16:28:46.905Z,5.10
2018-02-16T16:31:14.483Z,4.70
2018-02-16T16:33:42.426Z,5.33
2018-02-16T16:36:09.920Z,5.70
2018-02-16T16:38:37.492Z,5.20
2018-02-16T16:41:05.054Z,5.70
2018-02-16T16:43:32.685Z,5.77
2018-02-16T16:46:01.094Z,6.23
2018-02-16T16:48:28.627Z,6.40
2018-02-16T16:50:56.268Z,6.77
2018-02-16T16:53:23.902Z,6.57
2018-02-16T16:55:51.499Z,7.37
2018-02-16T16:58:19.085Z,8.50
2018-02-16T17:00:47.252Z,7.70
2018-02-16T17:03:14.804Z,7.63
2018-02-16T17:05:42.374Z,7.60
2018-02-16T17:08:09.972Z,8.40
2018-02-16T17:10:37.554Z,8.73
2018-02-16T17:13:05.197Z,8.63
2018-02-16T17:15:32.776Z,9.30
2018-02-16T17:18:00.778Z,9.63
2018-02-16T17:20:28.946Z,8.90
2018-02-16T17:22:56.563Z,10.03
2018-02-16T17:25:24.963Z,10.60
2018-02-16T17:27:52.899Z,9.87
2018-02-16T17:30:20.418Z,11.40
2018-02-16T17:32:48.014Z,12.00
2018-02-16T17:35:16.184Z,10.73
2018-02-16T17:37:43.796Z,10.60
2018-02-16T17:40:11.482Z,10.57
2018-02-16T17:42:39.047Z,11.20
2018-02-16T17:45:06.667Z,10.70
2018-02-16T17:47:34.278Z,12.20
2018-02-16T17:50:01.832Z,12.03
2018-02-16T17:52:29.351Z,11.63
2018-02-16T17:54:56.940Z,13.17
2018-02-16T17:57:24.563Z,11.10
2018-02-16T17:59:52.193Z,12.93
2018-02-16T18:02:19.842Z,12.17
2018-02-16T18:04:47.448Z,12.40
2018-02-16T18:07:15.062Z,12.13
2018-02-16T18:09:42.751Z,13.53
2018-02-16T18:12:10.621Z,13.07
2018-02-16T18:14:38.515Z,13.53
2018-02-16T18:17:06.145Z,13.50
2018-02-16T18:19:34.090Z,13.23
2018-02-16T18:22:01.677Z,13.03
2018-02-16T18:24:29.311Z,13.63
2018-02-16T18:26:56.889Z,13.67
2018-02-16T18:29:24.458Z,13.20
2018-02-16T18:31:52.031Z,13.73
2018-02-16T18:34:19.550Z,14.07
2018-02-16T18:36:47.139Z,15.97
2018-02-16T18:39:14.742Z,14.33
2018-02-16T18:41:42.347Z,14.27
2018-02-16T18:44:10.326Z,13.97
2018-02-16T18:46:37.988Z,15.13
2018-02-16T18:49:05.575Z,15.13
2018-02-16T18:51:33.217Z,15.70
2018-02-16T18:54:00.827Z,16.43
2018-02-16T18:56:28.418Z,17.90
2018-02-16T18:58:56.440Z,16.37
2018-02-16T19:01:23.935Z,17.10
2018-02-16T19:03:51.918Z,17.10
2018-02-16T19:06:19.531Z,17.27
2018-02-16T19:08:47.162Z,18.17
2018-02-16T19:11:14.737Z,19.13
2018-02-16T19:13:42.365Z,18.13
2018-02-16T19:16:09.927Z,19.13
2018-02-16T19:18:37.478Z,19.63
2018-02-16T19:21:05.086Z,19.63
2018-02-16T19:23:32.668Z,18.73
2018-02-16T19:26:00.651Z,18.87
2018-02-16T19:28:28.295Z,20.63
2018-02-16T19:30:55.903Z,20.07
2018-02-16T19:33:23.548Z,21.87
2018-02-16T19:35:51.071Z,20.90
2018-02-16T19:38:18.870Z,19.13
2018-02-16T19:40:46.533Z,21.77
2018-02-16T19:43:14.420Z,21.13
2018-02-16T19:45:42.062Z,19.63
2018-02-16T19:48:09.663Z,19.67
2018-02-16T19:50:37.284Z,20.47
2018-02-16T19:53:04.819Z,20.47
2018-02-16T19:55:32.432Z,20.93
2018-02-16T19:57:59.968Z,20.13
2018-02-16T20:00:27.499Z,20.53
2018-02-16T20:02:55.055Z,19.87
2018-02-16T20:05:22.666Z,21.17
2018-02-16T20:07:50.257Z,21.80
2018-02-16T20:10:18.251Z,19.53
2018-02-16T20:12:45.780Z,20.30
2018-02-16T20:15:13.682Z,20.20
2018-02-16T20:17:41.264Z,21.17
2018-02-16T20:20:08.900Z,22.13
2018-02-16T20:22:36.491Z,22.17
2018-02-16T20:25:04.134Z,23.43
2018-02-16T20:27:31.690Z,22.63
2018-02-16T20:29:59.267Z,23.90
2018-02-16T20:32:26.784Z,23.97
2018-02-16T20:34:54.295Z,22.67
2018-02-16T20:37:21.922Z,22.90
2018-02-16T20:39:49.455Z,21.90
2018-02-16T20:42:17.001Z,22.43
2018-02-16T20:44:45.034Z,23.70
2018-02-16T20:47:12.607Z,23.60
2018-02-16T20:49:40.146Z,23.73
2018-02-16T20:52:07.738Z,21.33
2018-02-16T20:54:35.726Z,23.00
2018-02-16T20:57:03.234Z,22.63
2018-02-16T20:59:30.862Z,22.20
2018-02-16T21:01:58.448Z,21.77
2018-02-16T21:04:26.066Z,22.87
2018-02-16T21:06:53.682Z,21.57
2018-02-16T21:09:21.312Z,23.90
2018-02-16T21:11:48.898Z,24.60
2018-02-16T21:14:16.517Z,23.50
2018-02-16T21:16:44.083Z,24.67
2018-02-16T21:19:11.719Z,20.27
2018-02-16T21:21:39.658Z,20.17
2018-02-16T21:24:07.677Z,21.90
2018-02-16T21:26:35.329Z,21.37
2018-02-16T21:29:02.970Z,21.47
2018-02-16T21:31:30.510Z,19.77
2018-02-16T21:33:58.028Z,16.33
2018-02-16T21:36:25.627Z,17.50
2018-02-16T21:38:53.570Z,17.80
2018-02-16T21:41:21.258Z,18.80
2018-02-16T21:43:49.277Z,17.83
2018-02-16T21:46:16.930Z,19.47
2018-02-16T21:48:44.499Z,19.10
2018-02-16T21:51:15.151Z,18.93
2018-02-16T21:53:42.806Z,19.77
2018-02-16T21:56:10.317Z,19.63
2018-02-16T21:58:37.914Z,18.63
2018-02-16T22:01:05.470Z,19.43
2018-02-16T22:03:33.106Z,19.03
2018-02-16T22:06:00.679Z,20.17
2018-02-16T22:08:28.290Z,20.83
2018-02-16T22:10:55.890Z,20.40
2018-02-16T22:13:23.430Z,19.53
2018-02-16T22:15:50.986Z,20.30
2018-02-16T22:18:18.558Z,21.33
2018-02-16T22:20:46.150Z,21.27
2018-02-16T22:23:13.760Z,21.87
2018-02-16T22:25:41.394Z,22.70
2018-02-16T22:28:09.287Z,23.67
2018-02-16T22:30:36.879Z,24.20
2018-02-16T22:33:04.458Z,23.67
2018-02-16T22:35:32.059Z,24.17
2018-02-16T22:37:59.654Z,23.97
2018-02-16T22:40:27.276Z,24.17
2018-02-16T22:42:54.834Z,22.20
2018-02-16T22:45:22.413Z,23.93
2018-02-16T22:47:49.956Z,23.37
2018-02-16T22:50:17.583Z,25.30
2018-02-16T22:52:45.179Z,25.17
2018-02-16T22:55:12.776Z,24.73
2018-02-16T22:57:40.379Z,24.37
2018-02-16T23:00:08.011Z,24.97
2018-02-16T23:02:35.608Z,24.20
2018-02-16T23:05:03.167Z,23.80
2018-02-16T23:07:30.764Z,23.07
2018-02-16T23:09:58.320Z,24.63
2018-02-16T23:12:26.068Z,24.20
2018-02-16T23:14:53.638Z,23.37
2018-02-16T23:17:21.263Z,24.13
2018-02-16T23:19:48.862Z,23.73
2018-02-16T23:22:16.430Z,24.17
2018-02-16T23:24:43.961Z,22.57
2018-02-16T23:27:11.551Z,22.87
2018-02-16T23:29:39.290Z,22.70
2018-02-16T23:32:06.796Z,22.83
2018-02-16T23:34:34.360Z,21.43
2018-02-16T23:37:02.331Z,21.97
2018-02-16T23:39:30.313Z,22.17
2018-02-16T23:41:58.546Z,22.20
2018-02-16T23:44:26.100Z,22.47
2018-02-16T23:46:53.699Z,22.40
2018-02-16T23:49:21.296Z,22.30
2018-02-16T23:51:49.317Z,21.70
2018-02-16T23:54:16.916Z,23.30
2018-02-16T23:56:44.883Z,22.63
2018-02-16T23:59:12.835Z,22.97
